Time;durP1;ratioP1;P1;durP2;ratioP2;P2;SDS_P1;SDS_P2;PMS_P1;PMS_P2;Temp;Humidity;BMP_temperature;BMP_pressure;BME280_temperature;BME280_humidity;BME280_pressure;Samples;Min_cycle;Max_cycle;Signal;HPM_P1;HPM_P2
2023/07/20 00:00:25;;;;;;;3.50;3.13;;;17.40;99.90;;;;;;5036467;28;20614;-69
2023/07/20 00:02:51;;;;;;;4.00;3.50;;;17.30;99.90;;;;;;5033176;28;20244;-79
2023/07/20 00:05:21;;;;;;;7.87;5.33;;;17.30;99.90;;;;;;5029774;28;20649;-78
2023/07/20 00:07:47;;;;;;;10.10;5.47;;;17.10;99.90;;;;;;5028325;28;20785;-78
2023/07/20 00:10:12;;;;;;;6.50;5.57;;;17.30;99.90;;;;;;5031115;28;20215;-75
2023/07/20 00:12:38;;;;;;;4.90;4.40;;;17.50;99.90;;;;;;5033527;28;20206;-69
2023/07/20 00:15:04;;;;;;;5.60;5.10;;;17.60;99.90;;;;;;5036495;28;20198;-70
2023/07/20 00:17:29;;;;;;;5.50;4.90;;;17.70;99.90;;;;;;5034769;28;20198;-73
2023/07/20 00:19:55;;;;;;;5.73;5.23;;;17.70;99.90;;;;;;5031450;28;20207;-74
2023/07/20 00:22:21;;;;;;;6.23;5.07;;;17.70;99.90;;;;;;4985538;28;20226;-71
2023/07/20 00:24:50;;;;;;;5.40;4.50;;;17.80;99.90;;;;;;5036216;28;20787;-84
2023/07/20 00:27:15;;;;;;;7.83;5.33;;;17.70;99.90;;;;;;5019584;28;20288;-82
2023/07/20 00:29:41;;;;;;;7.83;4.90;;;17.60;99.90;;;;;;5035979;28;20249;-82
2023/07/20 00:32:07;;;;;;;4.47;4.10;;;17.60;99.90;;;;;;5037631;28;20285;-83
2023/07/20 00:34:33;;;;;;;6.23;4.93;;;17.50;99.90;;;;;;5032831;28;20791;-84
2023/07/20 00:36:58;;;;;;;5.97;4.77;;;17.40;99.90;;;;;;5032546;28;20199;-84
2023/07/20 00:39:24;;;;;;;4.40;4.00;;;17.30;99.90;;;;;;5035827;28;20202;-71
2023/07/20 00:41:49;;;;;;;4.57;3.97;;;17.30;99.90;;;;;;5034516;28;20195;-74
2023/07/20 00:44:15;;;;;;;6.20;4.97;;;17.30;99.90;;;;;;5036802;28;20212;-74
2023/07/20 00:46:41;;;;;;;5.50;5.10;;;17.30;99.90;;;;;;5035563;28;20264;-75
2023/07/20 00:49:07;;;;;;;4.60;4.27;;;17.20;99.90;;;;;;5034403;28;20256;-73
2023/07/20 00:51:33;;;;;;;4.93;4.40;;;17.20;99.90;;;;;;5033761;28;20250;-75
2023/07/20 00:53:59;;;;;;;6.13;5.60;;;17.00;99.90;;;;;;5034221;28;20660;-70
2023/07/20 00:56:25;;;;;;;5.10;4.70;;;17.00;99.90;;;;;;5031648;28;21271;-73
2023/07/20 00:58:51;;;;;;;5.37;4.67;;;16.90;99.90;;;;;;5032757;28;20716;-72
2023/07/20 01:01:16;;;;;;;5.70;5.17;;;16.80;99.90;;;;;;5036716;28;20312;-75
2023/07/20 01:03:42;;;;;;;8.13;5.07;;;16.80;99.90;;;;;;5034623;28;20286;-77
2023/07/20 01:06:08;;;;;;;5.10;4.70;;;16.80;99.90;;;;;;5037571;28;20206;-77
2023/07/20 01:08:43;;;;;;;5.83;4.43;;;16.80;99.90;;;;;;5039055;28;20617;-76
2023/07/20 01:11:43;;;;;;;7.23;5.03;;;16.80;99.90;;;;;;5034700;28;20969;-80
2023/07/20 01:14:09;;;;;;;4.50;4.20;;;16.80;99.90;;;;;;5027500;28;20221;-81
2023/07/20 01:16:34;;;;;;;5.13;4.73;;;16.80;99.90;;;;;;5034012;28;20191;-82
2023/07/20 01:19:08;;;;;;;8.80;5.20;;;16.60;99.90;;;;;;5035526;28;20458;-85
2023/07/20 01:21:54;;;;;;;4.60;4.20;;;16.60;99.90;;;;;;5039122;28;20194;-83
2023/07/20 01:24:38;;;;;;;5.67;5.17;;;16.60;99.90;;;;;;5040680;28;20202;-69
2023/07/20 01:27:38;;;;;;;5.67;5.27;;;16.60;99.90;;;;;;5032535;28;20203;-70
2023/07/20 01:30:32;;;;;;;6.13;5.50;;;16.50;99.90;;;;;;5034724;28;21047;-67
2023/07/20 01:32:58;;;;;;;4.80;4.50;;;16.60;99.90;;;;;;5036239;28;20199;-72
2023/07/20 01:35:28;;;;;;;6.67;5.60;;;16.70;99.90;;;;;;5036635;28;20195;-77
2023/07/20 01:37:55;;;;;;;5.60;4.67;;;16.50;99.90;;;;;;5033562;28;20222;-74
2023/07/20 01:40:21;;;;;;;11.40;5.27;;;16.60;99.90;;;;;;5036245;28;20214;-76
2023/07/20 01:42:48;;;;;;;5.83;5.37;;;16.50;99.90;;;;;;5040152;28;20199;-76
2023/07/20 01:45:13;;;;;;;5.87;5.37;;;16.70;99.90;;;;;;5039552;28;20251;-76
2023/07/20 01:47:39;;;;;;;5.57;5.07;;;16.60;99.90;;;;;;5040360;28;20210;-81
2023/07/20 01:50:05;;;;;;;6.20;5.70;;;16.60;99.90;;;;;;5039697;28;20211;-75
2023/07/20 01:52:30;;;;;;;6.23;5.73;;;16.70;99.90;;;;;;5035426;28;20634;-75
2023/07/20 01:54:56;;;;;;;5.83;5.30;;;16.70;99.90;;;;;;5038716;28;20194;-75
2023/07/20 01:57:21;;;;;;;6.00;5.60;;;16.60;99.90;;;;;;5035338;28;20191;-74
2023/07/20 01:59:47;;;;;;;6.03;5.53;;;16.50;99.90;;;;;;5035382;28;20211;-74
2023/07/20 02:02:12;;;;;;;6.30;5.77;;;16.40;99.90;;;;;;5033509;28;20256;-75
2023/07/20 02:04:38;;;;;;;5.93;5.37;;;16.40;99.90;;;;;;5034628;28;20227;-74
2023/07/20 02:07:03;;;;;;;6.20;5.17;;;16.40;99.90;;;;;;5039058;28;20907;-74
2023/07/20 02:09:29;;;;;;;6.60;5.83;;;16.40;99.90;;;;;;5034601;28;21167;-74
2023/07/20 02:11:55;;;;;;;5.83;5.30;;;16.40;99.90;;;;;;5039398;28;20199;-75
2023/07/20 02:14:22;;;;;;;7.20;5.47;;;16.50;99.90;;;;;;5017142;28;20214;-77
2023/07/20 02:16:51;;;;;;;6.10;5.60;;;16.40;99.90;;;;;;5028660;28;20194;-77
2023/07/20 02:19:17;;;;;;;6.10;5.60;;;16.40;99.90;;;;;;5039314;28;20222;-77
2023/07/20 02:21:43;;;;;;;6.13;5.53;;;16.40;99.90;;;;;;5039381;28;20728;-81
2023/07/20 02:24:08;;;;;;;7.47;6.73;;;16.40;99.90;;;;;;4989775;28;20293;-76
2023/07/20 02:26:34;;;;;;;7.13;6.63;;;16.30;99.90;;;;;;5039131;28;20310;-83
2023/07/20 02:28:59;;;;;;;7.80;7.00;;;16.20;99.90;;;;;;5057259;28;20195;-85
2023/07/20 02:31:28;;;;;;;8.03;5.60;;;16.10;99.90;;;;;;5061905;28;20463;-83
2023/07/20 02:33:54;;;;;;;6.73;6.23;;;16.00;99.90;;;;;;5049673;28;20191;-86
2023/07/20 02:36:19;;;;;;;6.73;6.03;;;16.00;99.90;;;;;;5056880;28;20199;-85
2023/07/20 02:38:44;;;;;;;6.57;5.97;;;16.00;99.90;;;;;;5037057;28;20226;-75
2023/07/20 02:41:10;;;;;;;6.10;5.60;;;15.90;99.90;;;;;;5038757;28;20195;-76
2023/07/20 02:43:35;;;;;;;7.27;6.67;;;15.90;99.90;;;;;;5036015;28;20192;-76
2023/07/20 02:46:01;;;;;;;10.73;6.77;;;15.90;99.90;;;;;;5019452;28;20199;-77
2023/07/20 02:48:26;;;;;;;7.80;7.10;;;16.00;99.90;;;;;;5036732;28;20691;-76
2023/07/20 02:50:52;;;;;;;9.30;7.40;;;16.00;99.90;;;;;;5038004;28;20312;-76
2023/07/20 02:53:17;;;;;;;10.43;9.33;;;15.90;99.90;;;;;;5038841;28;20211;-74
2023/07/20 02:55:43;;;;;;;10.40;9.50;;;15.80;99.90;;;;;;5037310;28;20289;-75
2023/07/20 02:58:08;;;;;;;10.30;9.30;;;15.80;99.90;;;;;;5035637;28;20620;-75
2023/07/20 03:00:34;;;;;;;10.33;9.33;;;15.80;99.90;;;;;;5038224;28;20198;-76
2023/07/20 03:02:59;;;;;;;10.13;9.23;;;15.80;99.90;;;;;;5036194;28;20195;-75
2023/07/20 03:05:25;;;;;;;11.43;10.30;;;15.80;99.90;;;;;;5037560;28;20237;-76
2023/07/20 03:07:50;;;;;;;10.87;9.97;;;15.80;99.90;;;;;;5038267;28;20939;-75
2023/07/20 03:10:16;;;;;;;10.93;9.93;;;15.90;99.90;;;;;;5033606;28;20214;-75
2023/07/20 03:12:42;;;;;;;9.87;8.97;;;16.00;99.90;;;;;;5036607;28;20542;-75
2023/07/20 03:15:08;;;;;;;12.23;9.93;;;15.90;99.90;;;;;;5032815;28;20198;-84
2023/07/20 03:17:33;;;;;;;10.10;9.10;;;16.00;99.90;;;;;;5039119;28;20264;-81
2023/07/20 03:20:00;;;;;;;11.50;10.43;;;16.00;99.90;;;;;;5038523;28;20752;-83
2023/07/20 03:22:26;;;;;;;11.50;10.43;;;16.00;99.90;;;;;;4977470;28;20686;-84
2023/07/20 03:24:52;;;;;;;11.20;10.00;;;16.10;99.90;;;;;;5038930;28;20202;-84
2023/07/20 03:27:18;;;;;;;11.83;9.97;;;16.20;99.90;;;;;;5032393;28;20202;-86
2023/07/20 03:29:44;;;;;;;10.47;9.60;;;16.20;99.90;;;;;;5038799;28;20221;-85
2023/07/20 03:32:09;;;;;;;10.70;9.70;;;16.20;99.90;;;;;;5038012;28;20677;-70
2023/07/20 03:34:35;;;;;;;8.93;8.23;;;16.20;99.90;;;;;;5037360;28;20207;-80
2023/07/20 03:37:00;;;;;;;10.27;9.47;;;16.30;99.90;;;;;;5034163;28;20769;-75
2023/07/20 03:39:26;;;;;;;10.07;9.17;;;16.20;99.90;;;;;;5036653;28;20281;-73
2023/07/20 03:41:52;;;;;;;9.77;8.83;;;16.20;99.90;;;;;;5035233;28;20260;-74
2023/07/20 03:44:17;;;;;;;10.20;9.27;;;16.10;99.90;;;;;;5028947;28;20207;-77
2023/07/20 03:46:43;;;;;;;8.90;8.10;;;15.90;99.90;;;;;;5037252;28;20203;-77
2023/07/20 03:49:10;;;;;;;10.70;9.80;;;15.90;99.90;;;;;;5037961;28;20206;-84
2023/07/20 03:51:35;;;;;;;10.10;9.20;;;15.90;99.90;;;;;;5037138;28;20340;-74
2023/07/20 03:54:01;;;;;;;10.73;9.57;;;15.80;99.90;;;;;;5026286;28;20217;-83
2023/07/20 03:56:26;;;;;;;9.83;8.87;;;15.90;99.90;;;;;;5034153;28;20227;-84
2023/07/20 03:58:52;;;;;;;9.70;8.70;;;15.80;99.90;;;;;;5037409;28;20207;-82
2023/07/20 04:01:18;;;;;;;9.87;8.93;;;15.80;99.90;;;;;;5037538;28;20339;-82
2023/07/20 04:03:43;;;;;;;9.47;8.67;;;15.80;99.90;;;;;;5037369;28;20657;-82
2023/07/20 04:06:09;;;;;;;9.30;8.60;;;15.90;99.90;;;;;;5036181;28;20566;-84
2023/07/20 04:08:36;;;;;;;9.63;8.67;;;15.80;99.90;;;;;;5047871;28;20224;-83
2023/07/20 04:11:04;;;;;;;8.93;8.13;;;15.80;99.90;;;;;;5049926;28;20238;-83
2023/07/20 04:13:33;;;;;;;9.07;8.37;;;15.90;99.90;;;;;;5049046;28;20207;-84
2023/07/20 04:15:58;;;;;;;9.57;8.70;;;15.90;99.90;;;;;;5045540;28;20249;-83
2023/07/20 04:18:24;;;;;;;10.43;9.17;;;15.80;99.90;;;;;;5031731;28;20194;-83
2023/07/20 04:20:49;;;;;;;9.50;8.60;;;15.80;99.90;;;;;;5033154;28;20277;-84
2023/07/20 04:23:15;;;;;;;10.03;9.13;;;15.80;99.90;;;;;;5008199;28;20264;-84
2023/07/20 04:25:40;;;;;;;9.77;8.87;;;15.90;99.90;;;;;;5029799;28;20203;-82
2023/07/20 04:28:10;;;;;;;9.20;8.30;;;15.90;99.90;;;;;;5036993;28;20227;-73
2023/07/20 04:30:36;;;;;;;9.40;8.53;;;15.90;99.90;;;;;;5030512;28;20225;-73
2023/07/20 04:33:03;;;;;;;10.07;9.17;;;15.90;99.90;;;;;;5033880;28;20194;-86
2023/07/20 04:35:48;;;;;;;10.57;9.73;;;16.00;99.90;;;;;;5040017;28;20199;-85
2023/07/20 04:38:17;;;;;;;9.13;8.43;;;16.10;99.90;;;;;;5030972;28;20269;-72
2023/07/20 04:40:47;;;;;;;9.10;8.23;;;16.00;99.90;;;;;;5026615;28;20264;-72
2023/07/20 04:43:17;;;;;;;8.93;7.83;;;15.90;99.90;;;;;;5025947;28;20204;-72
2023/07/20 04:45:42;;;;;;;9.17;8.07;;;15.90;99.90;;;;;;5036683;28;20198;-86
2023/07/20 04:48:14;;;;;;;8.83;8.03;;;16.00;99.90;;;;;;5029671;28;20221;-71
2023/07/20 04:50:45;;;;;;;9.37;8.40;;;16.00;99.90;;;;;;5031191;28;20227;-70
2023/07/20 04:53:11;;;;;;;9.80;8.90;;;16.10;99.90;;;;;;5036461;28;20203;-83
2023/07/20 04:55:40;;;;;;;9.17;8.43;;;16.10;99.90;;;;;;5041464;28;20210;-75
2023/07/20 04:58:06;;;;;;;9.83;8.67;;;16.00;99.90;;;;;;5034106;28;20200;-78
2023/07/20 05:00:33;;;;;;;8.53;7.47;;;15.90;99.90;;;;;;5039378;28;20291;-83
2023/07/20 05:02:59;;;;;;;9.13;8.00;;;16.00;99.90;;;;;;5040991;28;20373;-82
2023/07/20 05:05:25;;;;;;;8.30;7.57;;;15.90;99.90;;;;;;5035230;28;20295;-80
2023/07/20 05:07:50;;;;;;;9.33;8.43;;;15.90;99.90;;;;;;5041073;28;20664;-75
2023/07/20 05:10:16;;;;;;;8.97;8.27;;;15.90;99.90;;;;;;5039846;28;20219;-79
2023/07/20 05:12:41;;;;;;;9.27;8.37;;;15.80;99.90;;;;;;5040765;28;20203;-77
2023/07/20 05:15:07;;;;;;;8.80;8.10;;;15.80;99.90;;;;;;5041039;28;20300;-78
2023/07/20 05:17:33;;;;;;;10.17;7.53;;;15.80;99.90;;;;;;5036314;28;20199;-70
2023/07/20 05:19:58;;;;;;;9.33;8.43;;;15.80;99.90;;;;;;5022377;28;20206;-78
2023/07/20 05:22:24;;;;;;;8.97;7.93;;;16.00;99.90;;;;;;4994165;28;20657;-80
2023/07/20 05:24:50;;;;;;;11.27;7.97;;;15.90;99.90;;;;;;5041701;28;20219;-73
2023/07/20 05:27:15;;;;;;;11.53;8.70;;;15.90;99.90;;;;;;5037355;28;20653;-72
2023/07/20 05:29:47;;;;;;;9.33;8.23;;;16.00;99.90;;;;;;5036327;28;20237;-75
2023/07/20 05:32:15;;;;;;;8.93;8.23;;;16.10;99.90;;;;;;5036697;28;20206;-73
2023/07/20 05:34:41;;;;;;;9.43;8.57;;;16.10;99.90;;;;;;5036759;28;20222;-75
2023/07/20 05:37:06;;;;;;;10.13;9.10;;;16.20;99.90;;;;;;5040190;28;20218;-76
2023/07/20 05:39:35;;;;;;;9.63;8.50;;;16.20;99.90;;;;;;5038131;28;20202;-72
2023/07/20 05:42:00;;;;;;;12.03;8.67;;;16.30;99.90;;;;;;5037550;28;20649;-71
2023/07/20 05:44:26;;;;;;;10.30;8.70;;;16.30;99.90;;;;;;5038222;28;20249;-76
2023/07/20 05:46:51;;;;;;;9.50;8.53;;;16.20;99.90;;;;;;5037420;28;20195;-79
2023/07/20 05:49:17;;;;;;;9.33;8.53;;;16.30;99.90;;;;;;5039583;28;20223;-72
2023/07/20 05:51:42;;;;;;;9.13;8.27;;;16.30;99.90;;;;;;5037078;28;20219;-66
2023/07/20 05:54:08;;;;;;;8.83;8.03;;;16.40;99.90;;;;;;5042119;28;20229;-82
2023/07/20 05:56:33;;;;;;;8.47;7.77;;;16.60;99.90;;;;;;5044964;28;20286;-82
2023/07/20 05:58:59;;;;;;;9.40;8.63;;;16.60;99.90;;;;;;5038390;28;20466;-70
2023/07/20 06:01:27;;;;;;;10.67;8.47;;;16.40;99.90;;;;;;5039771;28;20219;-69
2023/07/20 06:03:53;;;;;;;9.67;8.87;;;16.40;99.90;;;;;;5037448;28;20204;-69
2023/07/20 06:06:18;;;;;;;8.80;8.00;;;16.40;99.90;;;;;;5037248;28;20202;-72
2023/07/20 06:08:44;;;;;;;9.57;8.63;;;16.40;99.90;;;;;;5037708;28;20195;-72
2023/07/20 06:11:10;;;;;;;9.27;8.27;;;16.40;99.90;;;;;;5036777;28;20222;-71
2023/07/20 06:13:35;;;;;;;9.53;7.37;;;16.60;99.90;;;;;;5037750;28;20301;-71
2023/07/20 06:16:03;;;;;;;7.93;7.13;;;16.70;99.90;;;;;;5033617;28;20223;-77
2023/07/20 06:18:30;;;;;;;6.80;6.30;;;16.70;99.90;;;;;;5038815;28;20579;-84
2023/07/20 06:20:55;;;;;;;7.47;6.77;;;17.00;99.90;;;;;;5040455;28;20199;-84
2023/07/20 06:23:21;;;;;;;9.10;6.70;;;16.90;99.90;;;;;;4981617;28;20215;-83
2023/07/20 06:25:47;;;;;;;6.53;5.43;;;16.80;99.90;;;;;;5038188;28;20551;-84
2023/07/20 06:28:13;;;;;;;6.03;5.20;;;16.90;99.90;;;;;;5020664;28;20532;-84
2023/07/20 06:30:38;;;;;;;6.10;5.50;;;16.90;99.90;;;;;;5035326;28;20222;-74
2023/07/20 06:33:04;;;;;;;8.53;6.80;;;16.80;99.90;;;;;;5036450;28;20204;-70
2023/07/20 06:35:29;;;;;;;6.53;5.57;;;16.70;99.90;;;;;;5034313;28;20265;-78
2023/07/20 06:37:55;;;;;;;6.00;5.33;;;16.70;99.90;;;;;;5032473;28;20203;-73
2023/07/20 06:40:21;;;;;;;5.73;4.70;;;16.70;99.90;;;;;;5033618;28;20204;-73
2023/07/20 06:42:47;;;;;;;5.57;4.87;;;16.70;99.90;;;;;;5036269;28;20279;-72
2023/07/20 06:45:12;;;;;;;4.30;3.90;;;16.70;99.90;;;;;;5029956;28;20286;-73
2023/07/20 06:47:41;;;;;;;5.13;3.53;;;16.60;99.90;;;;;;5035779;28;20199;-76
2023/07/20 06:50:07;;;;;;;3.90;3.53;;;16.60;99.90;;;;;;5036671;28;20861;-73
2023/07/20 06:52:33;;;;;;;3.67;3.37;;;16.60;99.90;;;;;;5037858;28;20222;-69
2023/07/20 06:54:58;;;;;;;4.00;3.70;;;16.70;99.90;;;;;;5034958;28;20199;-83
2023/07/20 06:57:25;;;;;;;6.67;3.77;;;16.80;99.90;;;;;;5034779;28;20228;-81
2023/07/20 06:59:50;;;;;;;4.47;3.93;;;16.80;99.90;;;;;;5039390;28;20218;-82
2023/07/20 07:02:16;;;;;;;2.27;2.10;;;17.00;99.90;;;;;;5036612;28;20458;-82
2023/07/20 07:04:42;;;;;;;2.70;2.50;;;17.10;99.90;;;;;;5035415;28;20676;-70
2023/07/20 07:07:09;;;;;;;3.17;2.13;;;17.10;99.90;;;;;;5038604;28;20829;-72
2023/07/20 07:09:34;;;;;;;1.63;1.53;;;17.00;99.90;;;;;;5036494;28;20674;-71
2023/07/20 07:12:00;;;;;;;3.13;2.17;;;17.00;99.90;;;;;;5037457;28;20221;-71
2023/07/20 07:14:25;;;;;;;1.70;1.60;;;17.10;99.90;;;;;;5017873;28;20207;-72
2023/07/20 07:16:51;;;;;;;3.03;2.47;;;17.00;99.90;;;;;;5031200;28;20203;-69
2023/07/20 07:19:16;;;;;;;1.43;1.33;;;17.10;99.90;;;;;;5032818;28;20203;-68
2023/07/20 07:21:42;;;;;;;1.93;1.77;;;17.30;99.90;;;;;;5035095;28;20201;-72
2023/07/20 07:24:09;;;;;;;2.53;1.93;;;17.50;99.90;;;;;;4978261;28;20287;-76
2023/07/20 07:26:36;;;;;;;3.33;1.70;;;17.50;99.90;;;;;;5038749;28;20759;-73
2023/07/20 07:29:02;;;;;;;2.27;1.90;;;17.50;99.90;;;;;;5035690;28;20503;-71
2023/07/20 07:31:30;;;;;;;3.27;2.90;;;17.70;99.90;;;;;;5034863;28;20207;-72
2023/07/20 07:33:56;;;;;;;1.97;1.80;;;17.80;99.90;;;;;;5036371;28;20632;-70
2023/07/20 07:36:21;;;;;;;1.60;1.50;;;17.90;99.90;;;;;;5038038;28;20780;-71
2023/07/20 07:38:47;;;;;;;2.00;1.27;;;17.90;99.90;;;;;;5036757;28;20236;-72
2023/07/20 07:41:13;;;;;;;1.23;1.17;;;17.80;99.90;;;;;;5037283;28;20639;-73
2023/07/20 07:43:39;;;;;;;3.17;2.40;;;17.70;99.90;;;;;;5033236;28;20207;-73
2023/07/20 07:46:04;;;;;;;1.67;1.20;;;17.70;99.90;;;;;;5035899;28;20195;-74
2023/07/20 07:48:30;;;;;;;0.80;0.80;;;17.80;99.90;;;;;;5037235;28;20234;-76
2023/07/20 07:50:55;;;;;;;1.13;1.13;;;18.00;99.90;;;;;;5007181;28;20231;-74
2023/07/20 07:53:21;;;;;;;1.57;1.40;;;18.00;99.90;;;;;;5014808;28;20653;-74
2023/07/20 07:55:50;;;;;;;2.17;1.17;;;18.10;99.90;;;;;;5010412;28;20230;-76
2023/07/20 07:58:15;;;;;;;1.57;1.10;;;18.20;99.90;;;;;;5010468;28;20235;-73
2023/07/20 08:00:41;;;;;;;1.60;1.03;;;18.20;99.90;;;;;;5014471;28;20733;-73
2023/07/20 08:03:07;;;;;;;3.30;1.67;;;18.20;99.90;;;;;;5009038;28;20211;-70
2023/07/20 08:05:34;;;;;;;4.43;2.40;;;18.40;99.90;;;;;;5007672;28;20196;-74
2023/07/20 08:08:01;;;;;;;0.80;0.80;;;18.60;99.90;;;;;;5006861;28;20215;-73
2023/07/20 08:10:26;;;;;;;1.80;1.20;;;18.70;99.90;;;;;;5010210;28;20208;-73
2023/07/20 08:12:52;;;;;;;3.83;1.30;;;18.50;99.90;;;;;;5013759;28;20694;-74
2023/07/20 08:15:17;;;;;;;1.33;1.20;;;18.50;99.90;;;;;;5015778;28;20198;-73
2023/07/20 08:17:44;;;;;;;1.50;1.40;;;18.50;99.90;;;;;;5013265;28;20566;-73
2023/07/20 08:20:12;;;;;;;1.00;1.00;;;18.70;99.90;;;;;;5012130;28;20209;-74
2023/07/20 08:22:38;;;;;;;1.60;0.80;;;18.80;99.90;;;;;;4990405;28;20196;-67
2023/07/20 08:25:05;;;;;;;1.40;0.90;;;18.80;99.90;;;;;;5013298;28;20235;-69
2023/07/20 08:27:30;;;;;;;0.83;0.83;;;18.80;99.90;;;;;;5007656;28;20258;-65
2023/07/20 08:29:56;;;;;;;3.70;1.37;;;18.70;99.90;;;;;;5008919;28;20200;-77
2023/07/20 08:32:22;;;;;;;2.43;1.30;;;18.70;99.90;;;;;;5011608;28;20205;-77
2023/07/20 08:34:47;;;;;;;0.77;0.67;;;19.00;99.90;;;;;;5005585;28;20210;-68
2023/07/20 08:37:12;;;;;;;2.07;0.73;;;18.80;99.90;;;;;;5010834;28;20200;-74
2023/07/20 08:39:38;;;;;;;1.13;0.80;;;18.70;99.90;;;;;;5009422;28;20219;-67
2023/07/20 08:42:06;;;;;;;0.80;0.80;;;18.90;99.90;;;;;;5010995;28;20301;-69
2023/07/20 08:44:33;;;;;;;1.47;1.00;;;19.00;99.90;;;;;;5009386;28;20238;-69
2023/07/20 08:47:02;;;;;;;2.80;0.80;;;18.90;99.90;;;;;;5014439;28;20260;-70
2023/07/20 08:49:28;;;;;;;2.07;0.90;;;18.60;99.90;;;;;;5005643;28;20292;-70
2023/07/20 08:51:54;;;;;;;0.73;0.73;;;18.50;99.90;;;;;;5006529;28;20550;-72
2023/07/20 08:54:19;;;;;;;1.07;0.60;;;18.50;99.90;;;;;;5011267;28;20278;-70
2023/07/20 08:56:46;;;;;;;1.77;1.00;;;18.70;99.90;;;;;;5003883;28;20699;-85
2023/07/20 08:59:15;;;;;;;0.80;0.80;;;18.90;99.90;;;;;;5015828;28;20678;-84
2023/07/20 09:01:41;;;;;;;1.07;0.90;;;19.10;99.90;;;;;;5016721;28;20249;-84
2023/07/20 09:04:06;;;;;;;1.13;0.80;;;19.10;99.90;;;;;;5011896;28;20230;-83
2023/07/20 09:06:34;;;;;;;2.77;1.10;;;19.10;99.90;;;;;;5003662;28;20206;-72
2023/07/20 09:08:59;;;;;;;2.07;0.97;;;19.10;99.90;;;;;;5010267;28;20320;-71
2023/07/20 09:11:25;;;;;;;1.10;1.00;;;19.00;99.90;;;;;;5012345;28;20626;-75
2023/07/20 09:14:07;;;;;;;1.87;1.73;;;19.20;99.90;;;;;;5012900;28;20196;-75
2023/07/20 09:16:46;;;;;;;2.10;1.10;;;19.40;99.90;;;;;;5005909;28;20429;-73
2023/07/20 09:19:11;;;;;;;0.77;0.77;;;19.60;99.90;;;;;;5006808;28;20288;-75
2023/07/20 09:21:37;;;;;;;0.80;0.80;;;19.60;99.90;;;;;;5007500;28;20287;-79
2023/07/20 09:24:03;;;;;;;3.23;1.00;;;19.60;99.90;;;;;;4982705;28;20197;-75
2023/07/20 09:26:28;;;;;;;1.63;0.80;;;19.40;99.90;;;;;;5014084;28;20197;-73
2023/07/20 09:28:56;;;;;;;0.60;0.60;;;19.80;99.90;;;;;;5003770;28;20198;-71
2023/07/20 09:31:22;;;;;;;1.30;1.20;;;19.90;99.90;;;;;;5009423;28;20229;-71
2023/07/20 09:33:49;;;;;;;1.17;0.70;;;19.90;99.90;;;;;;5014114;28;20207;-74
2023/07/20 09:40:46;;;;;;;1.33;0.90;;;19.50;99.90;;;;;;5016706;28;20907;-79
2023/07/20 09:43:12;;;;;;;0.80;0.70;;;19.30;99.90;;;;;;5013769;28;20213;-67
2023/07/20 09:45:41;;;;;;;1.23;1.00;;;19.00;99.90;;;;;;5012301;28;20208;-74
2023/07/20 09:48:09;;;;;;;1.67;0.60;;;19.00;99.90;;;;;;5015021;28;20217;-68
2023/07/20 09:50:41;;;;;;;1.20;1.00;;;19.10;99.90;;;;;;5020660;28;20327;-74
2023/07/20 09:53:07;;;;;;;0.73;0.73;;;19.10;99.90;;;;;;5040692;28;20591;-71
2023/07/20 09:55:34;;;;;;;0.97;0.97;;;19.00;99.90;;;;;;5039803;28;20284;-74
2023/07/20 09:58:00;;;;;;;1.17;0.87;;;18.90;99.90;;;;;;5013542;28;20201;-72
2023/07/20 10:00:26;;;;;;;1.20;1.10;;;19.10;99.90;;;;;;5036427;28;20225;-72
2023/07/20 10:02:53;;;;;;;2.93;1.30;;;19.10;99.90;;;;;;5034474;28;20612;-72
2023/07/20 10:05:20;;;;;;;1.33;0.93;;;19.10;99.90;;;;;;5029570;28;20285;-67
2023/07/20 10:07:50;;;;;;;1.30;1.00;;;18.80;99.90;;;;;;5033305;28;20198;-71
2023/07/20 10:10:17;;;;;;;1.23;1.13;;;18.90;99.90;;;;;;5027836;28;20710;-73
2023/07/20 10:12:46;;;;;;;1.13;1.13;;;19.00;99.90;;;;;;5023220;28;20193;-75
2023/07/20 10:15:17;;;;;;;1.10;1.00;;;19.10;99.90;;;;;;5038455;28;20205;-76
2023/07/20 10:18:08;;;;;;;0.60;0.60;;;18.80;99.90;;;;;;5039846;28;20236;-74
2023/07/20 10:20:36;;;;;;;0.87;0.87;;;18.70;99.90;;;;;;5040293;28;20738;-74
2023/07/20 10:23:04;;;;;;;0.90;0.90;;;18.80;99.90;;;;;;5019012;28;20676;-68
2023/07/20 10:25:31;;;;;;;1.33;0.90;;;18.60;99.90;;;;;;5035289;28;20195;-80
2023/07/20 10:27:58;;;;;;;2.03;1.23;;;18.40;99.90;;;;;;5036841;28;20207;-73
2023/07/20 10:30:25;;;;;;;4.27;1.00;;;18.50;99.90;;;;;;5029721;28;20303;-74
2023/07/20 10:32:52;;;;;;;1.73;1.30;;;18.50;99.90;;;;;;5036330;28;20754;-75
2023/07/20 10:35:18;;;;;;;3.37;1.30;;;18.50;99.90;;;;;;5036206;28;20278;-77
2023/07/20 10:37:53;;;;;;;2.20;1.20;;;18.70;99.90;;;;;;5038159;28;20253;-75
2023/07/20 10:40:38;;;;;;;1.43;1.23;;;18.70;99.90;;;;;;5033117;28;20199;-84
2023/07/20 10:43:09;;;;;;;1.80;1.43;;;19.00;99.90;;;;;;5031648;28;20698;-78
2023/07/20 10:45:47;;;;;;;1.30;1.20;;;19.00;99.90;;;;;;5034401;28;20770;-76
2023/07/20 10:48:15;;;;;;;1.10;1.10;;;19.10;99.90;;;;;;5035242;28;20699;-77
2023/07/20 10:50:42;;;;;;;1.80;1.00;;;19.20;99.90;;;;;;5032085;28;20718;-71
2023/07/20 10:53:12;;;;;;;1.70;0.93;;;19.00;99.90;;;;;;5035710;28;20614;-74
2023/07/20 10:55:38;;;;;;;1.47;1.30;;;19.00;99.90;;;;;;5038432;28;20199;-81
2023/07/20 10:58:09;;;;;;;1.63;1.00;;;19.10;99.90;;;;;;5032251;28;20201;-68
2023/07/20 11:00:35;;;;;;;1.13;1.03;;;19.30;99.90;;;;;;5017147;28;20196;-74
2023/07/20 11:03:01;;;;;;;1.07;1.00;;;19.40;99.90;;;;;;5035926;28;20629;-77
2023/07/20 11:05:38;;;;;;;1.20;1.10;;;19.60;99.90;;;;;;5031749;28;20192;-77
2023/07/20 11:08:11;;;;;;;2.00;1.07;;;19.80;99.90;;;;;;5037154;28;20224;-78
2023/07/20 11:10:37;;;;;;;1.70;1.10;;;19.60;99.90;;;;;;5033934;28;20764;-76
2023/07/20 11:13:25;;;;;;;0.90;0.90;;;19.20;99.90;;;;;;5038095;28;20251;-77
2023/07/20 11:15:57;;;;;;;0.90;0.90;;;19.10;99.90;;;;;;5033058;28;20208;-77
2023/07/20 11:18:25;;;;;;;1.10;1.10;;;19.10;99.90;;;;;;5017319;28;20204;-76
2023/07/20 11:20:52;;;;;;;2.20;1.00;;;19.30;99.90;;;;;;5031501;28;20201;-75
2023/07/20 11:23:19;;;;;;;2.23;1.00;;;19.50;99.90;;;;;;4993204;28;20216;-76
2023/07/20 11:25:45;;;;;;;1.37;1.10;;;19.80;99.90;;;;;;5039749;28;20335;-75
2023/07/20 11:28:10;;;;;;;0.87;0.87;;;20.10;99.90;;;;;;5037442;28;20858;-75
2023/07/20 11:30:40;;;;;;;1.10;1.00;;;20.10;99.90;;;;;;5030541;28;20216;-74
2023/07/20 11:33:07;;;;;;;1.43;0.77;;;20.30;99.90;;;;;;5029448;28;20229;-76
2023/07/20 11:35:43;;;;;;;0.63;0.63;;;20.40;99.90;;;;;;5031631;28;20204;-78
2023/07/20 11:38:08;;;;;;;3.00;1.00;;;20.30;99.90;;;;;;5032996;28;20202;-80
2023/07/20 11:40:34;;;;;;;1.13;0.70;;;20.80;99.90;;;;;;5033954;28;20204;-79
2023/07/20 11:42:59;;;;;;;1.33;0.90;;;21.00;99.90;;;;;;5032171;28;20202;-72
2023/07/20 11:45:26;;;;;;;3.00;0.67;;;21.30;99.90;;;;;;5030279;28;20202;-71
2023/07/20 11:47:51;;;;;;;0.80;0.80;;;21.70;99.90;;;;;;5025432;28;20209;-73
2023/07/20 11:50:17;;;;;;;0.83;0.83;;;21.80;99.90;;;;;;5026742;28;20226;-74
2023/07/20 11:52:43;;;;;;;0.70;0.70;;;21.40;99.80;;;;;;5035768;28;20202;-71
2023/07/20 11:55:09;;;;;;;0.50;0.50;;;20.80;99.50;;;;;;5036050;28;20197;-72
2023/07/20 11:57:35;;;;;;;0.77;0.60;;;20.50;98.90;;;;;;5033238;28;20200;-71
2023/07/20 12:00:11;;;;;;;0.80;0.57;;;20.20;99.90;;;;;;5031830;28;20677;-69
2023/07/20 12:02:38;;;;;;;0.70;0.70;;;20.20;99.90;;;;;;5026062;28;20284;-72
2023/07/20 12:05:04;;;;;;;2.63;0.73;;;20.00;99.90;;;;;;5028871;28;20199;-67
2023/07/20 12:07:36;;;;;;;0.70;0.50;;;19.80;99.90;;;;;;5033852;28;20201;-79
2023/07/20 12:10:12;;;;;;;3.77;1.00;;;19.60;99.90;;;;;;5012578;28;20228;-75
2023/07/20 12:12:39;;;;;;;1.90;0.63;;;19.70;99.90;;;;;;5034656;28;20295;-76
2023/07/20 12:15:19;;;;;;;0.70;0.70;;;19.70;99.90;;;;;;5030598;28;20209;-75
2023/07/20 12:17:46;;;;;;;4.23;0.93;;;19.80;99.90;;;;;;5012416;28;20275;-79
2023/07/20 12:20:12;;;;;;;3.00;0.90;;;20.00;99.90;;;;;;5012304;28;20219;-72
2023/07/20 12:22:43;;;;;;;3.07;0.90;;;20.20;99.90;;;;;;4999410;28;20209;-68
2023/07/20 12:25:09;;;;;;;1.23;0.90;;;20.20;99.90;;;;;;5033008;28;20230;-82
2023/07/20 12:27:37;;;;;;;2.00;0.80;;;20.30;99.90;;;;;;5028320;28;20344;-81
2023/07/20 12:30:05;;;;;;;0.70;0.70;;;20.00;99.90;;;;;;5036851;28;20609;-74
2023/07/20 12:32:31;;;;;;;0.60;0.60;;;19.80;99.90;;;;;;5030707;28;20581;-77
2023/07/20 12:34:56;;;;;;;0.80;0.80;;;19.70;99.90;;;;;;5036011;28;20227;-80
2023/07/20 12:37:22;;;;;;;0.80;0.80;;;19.80;99.90;;;;;;5035732;28;20747;-82
2023/07/20 12:39:47;;;;;;;0.67;0.50;;;20.30;99.90;;;;;;5030635;28;20192;-79
2023/07/20 12:42:15;;;;;;;0.70;0.70;;;20.50;99.90;;;;;;5026042;28;20210;-74
2023/07/20 12:44:40;;;;;;;0.90;0.90;;;20.70;99.90;;;;;;5033933;28;20210;-77
2023/07/20 12:47:06;;;;;;;0.90;0.90;;;20.90;99.20;;;;;;5031302;28;20207;-75
2023/07/20 12:49:31;;;;;;;0.80;0.70;;;21.10;98.80;;;;;;5029739;28;20198;-72